Flight Track Log - Related Links

Times and Time Zones

All times are in EST time to prevent confusion due to time zone crossing. See the CSN6088 flight status page for this flight to view local times or setup timezone preferences in your user account.

Time Position Orientation Groundspeed Altitude Reporting Facility
EST Latitude Longitude Course Direction KTS MPH feet Rate Location/Type
Fri 11:09:43 PM 37.2460 126.4820 17° North 265 305 10,200  Level FlightAware ADS-B
Fri 11:10:00 PM 37.6175 126.5344 17° North  Level Estimated
Fri 11:10:33 PM 37.1960 126.4220 224° Southwest 311 358 11,600  Level FlightAware ADS-B
Fri 11:11:04 PM 37.1630 126.3840 223° Southwest 314 361 13,200 2,954 Climbing FlightAware ADS-B
Fri 11:11:38 PM 37.1370 126.3360 236° Southwest 312 359 14,800 2,847 Climbing FlightAware ADS-B
Fri 11:12:03 PM 37.1340 126.2850 266° West 320 368 16,000 2,400 Climbing FlightAware ADS-B
Fri 11:12:58 PM 37.1340 126.1830 270° West 335 386 18,000 2,160 Climbing FlightAware ADS-B
Fri 11:13:43 PM 37.1330 126.0960 269° West 346 398 19,600 2,080 Climbing FlightAware ADS-B
Fri 11:14:13 PM 37.1420 126.0410 282° West 355 409 20,600 1,395 Climbing FlightAware ADS-B
Fri 11:15:09 PM 37.1680 125.9380 288° West 355 409 21,600 750 Climbing FlightAware ADS-B
Fri 11:15:33 PM 37.1770 125.8970 285° West 355 409 21,600  Level FlightAware ADS-B
Fri 11:16:09 PM 37.1910 125.8370 286° West 355 409 21,600 2,591 Level FlightAware ADS-B
Fri 11:17:01 PM 37.2350 125.7100 294° West 372 428 25,400 2,257 Climbing FlightAware ADS-B
Fri 11:17:50 PM 37.2630 125.6270 293° West 372 428 25,400  Level FlightAware ADS-B
Fri 11:18:50 PM 37.2970 125.5260 293° West 372 428 25,400 2,655 Level FlightAware ADS-B
Fri 11:20:35 PM 37.3820 125.2670 22° Northeast 352 405 32,700 3,629 Climbing FlightAware ADS-B
Fri 11:20:54 PM 37.3890 125.2300 283° West 353 406 32,900 571 Climbing FlightAware ADS-B
Fri 11:21:00 PM 37.4306 125.5927 22° Northeast  Level Estimated
Fri 11:21:59 PM 37.3950 125.1030 273° West 359 413 33,500  Level FlightAware ADS-B
Fri 11:22:40 PM 37.3930 125.0110 268° West 366 421 34,100 343 Climbing FlightAware ADS-B
Fri 11:23:44 PM 37.3820 124.8710 264° West 363 418 34,100  Level FlightAware ADS-B
Fri 11:24:10 PM 37.3710 124.8210 255° West 364 419 34,100  Level FlightAware ADS-B
Fri 11:25:20 PM 37.3310 124.7040 247° West 365 420 34,100  Level FlightAware ADS-B
Fri 11:26:21 PM 37.2950 124.6030 246° West 365 420 34,100  Level FlightAware ADS-B
Fri 11:27:09 PM 37.2670 124.5240 246° West 365 420 34,100  Level FlightAware ADS-B
Fri 11:28:09 PM 37.2320 124.4250 246° West 365 420 34,100  Level FlightAware ADS-B
Fri 11:28:45 PM 37.2110 124.3660 246° West 365 420 34,100  Level FlightAware ADS-B
Fri 11:29:46 PM 37.1750 124.2660 246° West 365 420 34,100  Level FlightAware ADS-B
Fri 11:30:22 PM 37.1540 124.2070 246° West 365 420 34,100  Level FlightAware ADS-B
Fri 11:31:10 PM 37.1260 124.1280 246° West 365 420 34,100  Level FlightAware ADS-B
Fri 11:31:46 PM 37.1050 124.0680 246° West 365 420 34,100  Level FlightAware ADS-B
Fri 11:32:10 PM 37.0910 124.0290 246° West 365 420 34,100  Level FlightAware ADS-B
Fri 11:33:10 PM 37.0560 123.9300 246° West 365 420 34,100  Level FlightAware ADS-B
Fri 11:33:58 PM 37.0280 123.8510 246° West 365 420 34,100  Level FlightAware ADS-B
Fri 11:34:22 PM 37.0140 123.8120 246° West 365 420 34,100  Level FlightAware ADS-B
Fri 11:34:34 PM 37.0070 123.7920 246° West 365 420 34,100  Level FlightAware ADS-B
Fri 11:38:00 PM 37.2074 123.9278 28° Northeast  Level Estimated
Fri 11:39:00 PM 37.2657 123.9675 28° Northeast  Level Estimated
Fri 11:40:00 PM 37.3241 124.0073 28° Northeast  Level Estimated
Fri 11:41:00 PM 37.3824 124.0471 28° Northeast  Level Estimated
Fri 11:42:00 PM 37.4407 124.0870 29° Northeast  Level Estimated
Fri 11:43:00 PM 37.4990 124.1269 29° Northeast  Level Estimated
Fri 11:44:00 PM 37.5572 124.1669 29° Northeast  Level Estimated
Fri 11:45:00 PM 37.6155 124.2070 29° Northeast  Level Estimated
Fri 11:46:00 PM 37.6738 124.2471 29° Northeast  Level Estimated
Fri 11:47:00 PM 37.7320 124.2873 29° Northeast  Level Estimated
Fri 11:48:00 PM 37.7902 124.3276 29° Northeast  Level Estimated
Fri 11:49:00 PM 37.8484 124.3679 29° Northeast  Level Estimated
Fri 11:50:00 PM 37.9066 124.4083 29° Northeast  Level Estimated
Fri 11:51:00 PM 37.9648 124.4487 29° Northeast  Level Estimated
Fri 11:52:00 PM 38.0229 124.4892 29° Northeast  Level Estimated
Fri 11:53:00 PM 38.0811 124.5298 29° Northeast  Level Estimated
Fri 11:54:00 PM 38.1392 124.5704 29° Northeast  Level Estimated
Fri 11:55:00 PM 38.1973 124.6112 29° Northeast  Level Estimated
Fri 11:56:00 PM 38.2555 124.6519 29° Northeast  Level Estimated
Fri 11:57:00 PM 38.3135 124.6928 29° Northeast  Level Estimated
Fri 11:58:00 PM 38.3716 124.7337 29° Northeast  Level Estimated
Fri 11:59:00 PM 38.4297 124.7746 29° Northeast  Level Estimated
Sat 12:00:00 AM 38.4878 124.8157 29° Northeast  Level Estimated
Sat 12:01:00 AM 38.5458 124.8568 29° Northeast  Level Estimated
Sat 12:02:00 AM 38.6038 124.8979 29° Northeast  Level Estimated
Sat 12:03:00 AM 38.6618 124.9392 29° Northeast  Level Estimated
Sat 12:04:00 AM 38.7198 124.9805 29° Northeast  Level Estimated
Sat 12:05:00 AM 38.7778 125.0218 29° Northeast  Level Estimated
Sat 12:06:00 AM 38.8358 125.0633 29° Northeast  Level Estimated
Sat 12:07:00 AM 38.8937 125.1048 29° Northeast  Level Estimated
Sat 12:08:00 AM 38.9516 125.1463 29° Northeast  Level Estimated
Sat 12:09:00 AM 39.0096 125.1880 29° Northeast  Level Estimated
Sat 12:10:00 AM 39.0675 125.2297 29° Northeast  Level Estimated
Sat 12:11:00 AM 39.1254 125.2714 29° Northeast  Level Estimated
Sat 12:12:00 AM 39.1832 125.3133 29° Northeast  Level Estimated
Sat 12:13:00 AM 39.2411 125.3552 29° Northeast  Level Estimated
Sat 12:14:00 AM 39.2990 125.3972 29° Northeast  Level Estimated
Sat 12:15:00 AM 39.3568 125.4392 29° Northeast  Level Estimated
Sat 12:16:00 AM 39.4146 125.4813 29° Northeast  Level Estimated
Sat 12:17:00 AM 39.4724 125.5235 29° Northeast  Level Estimated
Sat 12:18:00 AM 39.5302 125.5658 29° Northeast  Level Estimated
Sat 12:19:00 AM 39.5880 125.6081 29° Northeast  Level Estimated
Sat 12:20:00 AM 39.6457 125.6505 29° Northeast  Level Estimated
Sat 12:21:00 AM 39.7034 125.6930 30° Northeast  Level Estimated
Sat 12:22:00 AM 39.7612 125.7355 30° Northeast  Level Estimated
Sat 12:23:00 AM 39.8189 125.7781 30° Northeast  Level Estimated
Sat 12:24:00 AM 39.8766 125.8208 30° Northeast  Level Estimated
Sat 12:25:00 AM 39.9342 125.8636 30° Northeast  Level Estimated
Sat 12:26:00 AM 39.9919 125.9064 30° Northeast  Level Estimated
Sat 12:27:00 AM 40.0496 125.9493 30° Northeast  Level Estimated
Sat 12:28:00 AM 40.1072 125.9923 30° Northeast  Level Estimated
Sat 12:29:00 AM 40.1648 126.0353 30° Northeast  Level Estimated
Sat 12:30:00 AM 40.2224 126.0785 30° Northeast  Level Estimated
Sat 12:31:00 AM 40.2800 126.1216 30° Northeast  Level Estimated
Sat 12:32:00 AM 40.3376 126.1649 30° Northeast  Level Estimated
Sat 12:33:00 AM 40.3951 126.2083 30° Northeast  Level Estimated
Sat 12:34:00 AM 40.4526 126.2517 30° Northeast  Level Estimated
Sat 12:35:00 AM 40.5102 126.2952 30° Northeast  Level Estimated
Sat 12:36:00 AM 40.5676 126.3387 30° Northeast  Level Estimated
Sat 12:37:00 AM 40.6251 126.3824 30° Northeast  Level Estimated
Sat 12:38:00 AM 40.6826 126.4261 30° Northeast  Level Estimated
Sat 12:39:00 AM 40.7401 126.4699 30° Northeast  Level Estimated
Sat 12:40:00 AM 40.7975 126.5137 30° Northeast  Level Estimated
Sat 12:41:00 AM 40.8549 126.5577 30° Northeast  Level Estimated
Sat 12:42:00 AM 40.9123 126.6017 30° Northeast  Level Estimated
Sat 12:43:00 AM 40.9697 126.6458 30° Northeast  Level Estimated
Sat 12:44:00 AM 41.0271 126.6899 30° Northeast  Level Estimated
Sat 12:45:00 AM 41.0844 126.7342 30° Northeast  Level Estimated
Sat 12:46:00 AM 41.1417 126.7785 30° Northeast  Level Estimated
Sat 12:47:00 AM 41.1991 126.8229 30° Northeast  Level Estimated
Sat 12:48:00 AM 41.2564 126.8674 30° Northeast  Level Estimated
Sat 12:49:00 AM 41.3136 126.9120 30° Northeast  Level Estimated
Sat 12:50:00 AM 41.3709 126.9566 30° Northeast  Level Estimated
Sat 12:51:00 AM 41.4282 127.0013 30° Northeast  Level Estimated
Sat 12:52:00 AM 41.4854 127.0461 30° Northeast  Level Estimated
Sat 12:53:00 AM 41.5426 127.0910 30° Northeast  Level Estimated
Sat 12:54:00 AM 41.5998 127.1359 30° Northeast  Level Estimated
Sat 12:55:00 AM 41.6570 127.1810 30° Northeast  Level Estimated
Sat 12:56:00 AM 41.7141 127.2261 31° Northeast  Level Estimated
Sat 12:57:00 AM 41.7713 127.2713 31° Northeast  Level Estimated
Sat 12:58:00 AM 41.8284 127.3165 31° Northeast  Level Estimated
Sat 12:59:00 AM 41.8855 127.3619 31° Northeast  Level Estimated
Sat 01:00:00 AM 41.9426 127.4073 31° Northeast  Level Estimated
Sat 01:01:00 AM 41.9997 127.4528 31° Northeast  Level Estimated
Sat 01:02:00 AM 42.0567 127.4984 31° Northeast  Level Estimated
Sat 01:03:00 AM 42.1138 127.5441 31° Northeast  Level Estimated
Sat 01:04:00 AM 42.1708 127.5899 31° Northeast  Level Estimated
Sat 01:05:00 AM 42.2278 127.6357 31° Northeast  Level Estimated
Sat 01:06:00 AM 42.2848 127.6817 31° Northeast  Level Estimated
Sat 01:07:00 AM 42.3417 127.7277 31° Northeast  Level Estimated
Sat 01:08:00 AM 42.3987 127.7738 31° Northeast  Level Estimated
Sat 01:09:00 AM 42.4536 127.8184 31° Northeast  Level Estimated
Sat 01:10:00 AM 42.5086 127.8630 31° Northeast  Level Estimated
Sat 01:11:00 AM 42.5635 127.9078 31° Northeast  Level Estimated
Sat 01:12:00 AM 42.6184 127.9526 31° Northeast  Level Estimated
Sat 01:13:00 AM 42.6733 127.9975 31° Northeast  Level Estimated
Sat 01:14:00 AM 42.7282 128.0425 31° Northeast  Level Estimated
Sat 01:15:00 AM 42.7830 128.0875 31° Northeast  Level Estimated
Sat 01:16:00 AM 42.8379 128.1327 31° Northeast  Level Estimated
Sat 01:17:00 AM 42.8927 128.1779 31° Northeast  Level Estimated
Sat 01:18:00 AM 42.9475 128.2232 31° Northeast  Level Estimated
Sat 01:19:00 AM 43.0023 128.2686 31° Northeast  Level Estimated
Sat 01:20:00 AM 43.0571 128.3140 31° Northeast  Level Estimated
Sat 01:21:00 AM 43.1118 128.3596 31° Northeast  Level Estimated
Sat 01:22:00 AM 43.1665 128.4052 31° Northeast  Level Estimated
Sat 01:23:00 AM 43.2212 128.4509 31° Northeast  Level Estimated

Login

Don't have an account? Register now (free) for customized features, flight alerts, and more!